createdAt,value
2024-02-16T00:01:57.323Z,15.20
2024-02-16T00:04:25.120Z,13.90
2024-02-16T00:06:52.810Z,13.90
2024-02-16T00:09:20.661Z,13.30
2024-02-16T00:11:48.407Z,12.80
2024-02-16T00:14:16.342Z,12.00
2024-02-16T00:16:43.921Z,13.00
2024-02-16T00:19:11.722Z,11.70
2024-02-16T00:21:39.528Z,12.20
2024-02-16T00:24:07.016Z,11.90
2024-02-16T00:26:34.558Z,10.40
2024-02-16T00:29:02.115Z,12.00
2024-02-16T00:31:29.884Z,9.70
2024-02-16T00:33:57.533Z,12.60
2024-02-16T00:36:25.348Z,10.20
2024-02-16T00:38:53.176Z,10.10
2024-02-16T00:41:20.933Z,10.80
2024-02-16T00:43:48.684Z,8.10
2024-02-16T00:46:16.237Z,9.20
2024-02-16T00:48:43.906Z,9.60
2024-02-16T00:51:11.726Z,8.30
2024-02-16T00:53:39.334Z,8.30
2024-02-16T00:56:06.885Z,8.30
2024-02-16T00:58:34.445Z,8.80
2024-02-16T01:01:02.116Z,10.30
2024-02-16T01:03:29.831Z,9.20
2024-02-16T01:05:57.554Z,12.50
2024-02-16T01:08:25.106Z,11.10
2024-02-16T01:10:52.803Z,10.70
2024-02-16T01:13:20.512Z,11.40
2024-02-16T01:15:48.078Z,13.50
2024-02-16T01:18:16.034Z,12.70
2024-02-16T01:20:43.805Z,12.40
2024-02-16T01:23:11.378Z,11.60
2024-02-16T01:25:38.953Z,11.10
2024-02-16T01:28:06.485Z,13.30
2024-02-16T01:30:34.186Z,10.30
2024-02-16T01:33:02.067Z,12.60
2024-02-16T01:35:29.904Z,12.90
2024-02-16T01:37:57.547Z,12.20
2024-02-16T01:40:25.100Z,13.10
2024-02-16T01:42:52.763Z,13.50
2024-02-16T01:45:20.452Z,12.80
2024-02-16T01:47:48.242Z,13.10
2024-02-16T01:50:15.963Z,14.20
2024-02-16T01:52:43.610Z,12.30
2024-02-16T01:55:11.225Z,13.80
2024-02-16T01:57:39.068Z,13.00
2024-02-16T02:00:07.026Z,12.60
2024-02-16T02:02:34.675Z,11.60
2024-02-16T02:05:02.341Z,12.00
2024-02-16T02:07:30.292Z,11.90
2024-02-16T02:09:58.058Z,11.20
2024-02-16T02:12:25.647Z,11.20
2024-02-16T02:14:53.326Z,12.80
2024-02-16T02:17:21.079Z,12.00
2024-02-16T02:19:48.880Z,12.70
2024-02-16T02:22:17.032Z,10.60
2024-02-16T02:24:44.738Z,12.60
2024-02-16T02:27:12.439Z,11.00
2024-02-16T02:29:39.961Z,12.80
2024-02-16T02:32:07.731Z,11.10
2024-02-16T02:34:35.437Z,10.90
2024-02-16T02:37:03.146Z,9.70
2024-02-16T02:39:30.776Z,10.10
2024-02-16T02:41:58.814Z,11.30
2024-02-16T02:44:26.548Z,11.10
2024-02-16T02:46:54.106Z,10.20
2024-02-16T02:49:21.920Z,9.30
2024-02-16T02:51:49.635Z,9.70
2024-02-16T02:54:17.559Z,11.00
2024-02-16T02:56:45.171Z,10.80
2024-02-16T02:59:12.827Z,10.20
2024-02-16T03:01:40.692Z,9.40
2024-02-16T03:04:08.237Z,10.00
2024-02-16T03:06:36.034Z,11.00
2024-02-16T03:09:03.701Z,7.60
2024-02-16T03:11:31.290Z,10.60
2024-02-16T03:13:59.087Z,9.70
2024-02-16T03:16:26.665Z,9.60
2024-02-16T03:18:54.366Z,9.50
2024-02-16T03:21:22.124Z,9.70
2024-02-16T03:23:49.929Z,10.60
2024-02-16T03:26:18.018Z,9.70
2024-02-16T03:28:45.681Z,10.70
2024-02-16T03:31:13.242Z,10.50
2024-02-16T03:33:41.023Z,9.10
2024-02-16T03:36:08.775Z,10.80
2024-02-16T03:38:36.337Z,10.00
2024-02-16T03:41:03.990Z,10.10
2024-02-16T03:43:31.657Z,10.00
2024-02-16T03:45:59.516Z,8.60
2024-02-16T03:48:27.242Z,9.20
2024-02-16T03:50:55.058Z,10.10
2024-02-16T03:53:22.603Z,9.80
2024-02-16T03:55:50.366Z,10.10
2024-02-16T03:58:18.028Z,11.00
2024-02-16T04:00:45.765Z,9.90
2024-02-16T04:03:13.504Z,10.60
2024-02-16T04:05:41.623Z,10.70
2024-02-16T04:08:09.187Z,10.40
2024-02-16T04:10:36.854Z,10.70
2024-02-16T04:13:04.418Z,9.30
2024-02-16T04:15:32.230Z,9.30
2024-02-16T04:18:00.082Z,9.40
2024-02-16T04:20:27.806Z,10.60
2024-02-16T04:22:55.357Z,8.20
2024-02-16T04:25:22.917Z,9.00
2024-02-16T04:27:50.883Z,9.60
2024-02-16T04:30:18.474Z,9.00
2024-02-16T04:32:46.221Z,10.00
2024-02-16T04:35:13.969Z,9.30
2024-02-16T04:37:41.630Z,9.00
2024-02-16T04:40:09.296Z,9.30
2024-02-16T04:42:36.868Z,9.00
2024-02-16T04:45:06.573Z,10.40
2024-02-16T04:47:34.844Z,9.40
2024-02-16T04:50:02.681Z,9.60
2024-02-16T04:52:31.259Z,9.60
2024-02-16T04:54:59.150Z,11.00
2024-02-16T04:57:26.722Z,9.70
2024-02-16T04:59:54.403Z,9.60
2024-02-16T05:02:22.446Z,10.60
2024-02-16T05:04:50.121Z,10.70
2024-02-16T05:07:18.164Z,10.40
2024-02-16T05:09:45.838Z,10.40
2024-02-16T05:12:13.591Z,8.30
2024-02-16T05:14:41.255Z,9.90
2024-02-16T05:17:08.825Z,9.50
2024-02-16T05:19:36.452Z,9.60
2024-02-16T05:22:04.132Z,9.00
2024-02-16T05:24:31.787Z,8.70
2024-02-16T05:26:59.496Z,10.20
2024-02-16T05:29:27.337Z,8.80
2024-02-16T05:31:54.997Z,10.50
2024-02-16T05:34:22.604Z,9.50
2024-02-16T05:36:50.433Z,9.70
2024-02-16T05:39:17.886Z,9.40
2024-02-16T05:41:45.533Z,10.10
2024-02-16T05:44:12.882Z,9.50
2024-02-16T05:46:40.441Z,8.50
2024-02-16T05:49:08.082Z,9.60
2024-02-16T05:51:36.068Z,10.20
2024-02-16T05:54:04.135Z,9.70
2024-02-16T05:56:31.810Z,8.80
2024-02-16T05:58:59.475Z,10.00
2024-02-16T06:01:27.046Z,9.60
2024-02-16T06:03:54.603Z,9.30
2024-02-16T06:06:22.358Z,10.10
2024-02-16T06:08:50.161Z,10.90
2024-02-16T06:11:17.866Z,11.10
2024-02-16T06:13:45.537Z,8.70
2024-02-16T06:16:13.206Z,9.90
2024-02-16T06:18:40.999Z,9.90
2024-02-16T06:21:08.761Z,8.90
2024-02-16T06:23:36.401Z,9.10
2024-02-16T06:26:04.159Z,10.00
2024-02-16T06:28:31.815Z,10.00
2024-02-16T06:30:59.476Z,10.40
2024-02-16T06:33:27.216Z,10.90
2024-02-16T06:35:55.255Z,9.70
2024-02-16T06:38:22.972Z,9.30
2024-02-16T06:40:50.523Z,10.00
2024-02-16T06:43:18.086Z,9.40
2024-02-16T06:45:45.685Z,9.70
2024-02-16T06:48:13.753Z,10.60
2024-02-16T06:50:41.552Z,9.60
2024-02-16T06:53:09.364Z,9.90
2024-02-16T06:55:37.320Z,10.20
2024-02-16T06:58:05.001Z,8.50
2024-02-16T07:00:32.713Z,9.40
2024-02-16T07:03:00.438Z,8.80
2024-02-16T07:05:28.107Z,9.10
2024-02-16T07:07:55.723Z,9.10
2024-02-16T07:10:23.279Z,8.90
2024-02-16T07:12:50.884Z,10.10
2024-02-16T07:15:18.832Z,9.40
2024-02-16T07:17:46.457Z,9.20
2024-02-16T07:20:14.321Z,8.40
2024-02-16T07:22:41.997Z,9.30
2024-02-16T07:25:09.656Z,9.20
2024-02-16T07:27:37.259Z,8.80
2024-02-16T07:30:04.912Z,9.60
2024-02-16T07:32:32.506Z,9.10
2024-02-16T07:35:00.180Z,8.90
2024-02-16T07:37:28.174Z,8.80
2024-02-16T07:39:56.053Z,9.00
2024-02-16T07:42:23.623Z,8.50
2024-02-16T07:44:51.340Z,8.60
2024-02-16T07:47:19.028Z,9.00
2024-02-16T07:49:46.802Z,8.80
2024-02-16T07:52:14.552Z,7.70
2024-02-16T07:54:42.317Z,9.00
2024-02-16T07:57:10.326Z,9.00
2024-02-16T07:59:37.940Z,8.80
2024-02-16T08:02:05.614Z,8.80
2024-02-16T08:04:33.264Z,8.50
2024-02-16T08:07:01.118Z,8.10
2024-02-16T08:09:28.897Z,7.90
2024-02-16T08:11:56.517Z,8.90
2024-02-16T08:14:24.319Z,9.20
2024-02-16T08:17:00.966Z,8.20
2024-02-16T08:19:35.937Z,8.50
2024-02-16T08:22:03.580Z,8.60
2024-02-16T08:24:31.195Z,8.80
2024-02-16T08:26:58.936Z,9.00
2024-02-16T08:29:26.475Z,9.00
2024-02-16T08:31:54.021Z,7.50
2024-02-16T08:34:21.644Z,8.30
2024-02-16T08:36:49.859Z,8.20
2024-02-16T08:39:17.349Z,8.30
2024-02-16T08:41:45.090Z,8.60
2024-02-16T08:44:12.462Z,8.00
2024-02-16T08:46:40.103Z,8.80
2024-02-16T08:49:07.918Z,7.70
2024-02-16T08:51:35.854Z,8.80
2024-02-16T08:54:05.872Z,8.90
2024-02-16T08:56:36.784Z,8.10
2024-02-16T08:59:04.341Z,7.50
2024-02-16T09:01:32.365Z,7.90
2024-02-16T09:04:02.177Z,7.30
2024-02-16T09:06:30.555Z,8.10
2024-02-16T09:08:58.318Z,7.30
2024-02-16T09:11:26.111Z,8.20
2024-02-16T09:13:53.698Z,8.10
2024-02-16T09:16:24.299Z,6.80
2024-02-16T09:18:53.183Z,6.60
2024-02-16T09:21:21.082Z,6.60
2024-02-16T09:23:48.844Z,6.50
2024-02-16T09:26:16.533Z,6.90
2024-02-16T09:28:44.065Z,6.90
2024-02-16T09:31:11.721Z,6.00
2024-02-16T09:33:39.398Z,5.70
2024-02-16T09:36:07.166Z,6.80
2024-02-16T09:38:34.820Z,6.50
2024-02-16T09:41:02.365Z,6.70
2024-02-16T09:43:29.950Z,6.20
2024-02-16T09:45:57.531Z,6.80
2024-02-16T09:48:25.320Z,6.70
2024-02-16T09:50:53.194Z,5.60
2024-02-16T09:53:20.974Z,5.80
2024-02-16T09:55:48.547Z,6.60
2024-02-16T09:58:16.198Z,5.70
2024-02-16T10:00:43.914Z,6.00
2024-02-16T10:03:11.866Z,5.30
2024-02-16T10:05:39.554Z,6.10
2024-02-16T10:08:07.261Z,5.20
2024-02-16T10:10:34.924Z,6.70
2024-02-16T10:13:02.482Z,5.60
2024-02-16T10:15:30.187Z,5.60
2024-02-16T10:17:58.024Z,5.80
2024-02-16T10:20:25.779Z,6.20
2024-02-16T10:22:53.321Z,5.70
2024-02-16T10:25:21.189Z,5.40
2024-02-16T10:27:48.851Z,5.30
2024-02-16T10:30:16.513Z,4.70
2024-02-16T10:32:44.398Z,4.80
2024-02-16T10:35:12.013Z,4.90
2024-02-16T10:37:39.816Z,4.90
2024-02-16T10:40:07.375Z,5.10
2024-02-16T10:42:34.969Z,4.80
2024-02-16T10:45:03.059Z,4.80
2024-02-16T10:47:30.799Z,4.60
2024-02-16T10:49:58.661Z,5.00
2024-02-16T10:52:26.408Z,4.20
2024-02-16T10:54:54.051Z,4.30
2024-02-16T10:57:21.632Z,4.00
2024-02-16T10:59:49.365Z,4.40
2024-02-16T11:02:16.942Z,4.10
2024-02-16T11:07:30.291Z,4.20
2024-02-16T11:09:58.144Z,3.90
2024-02-16T11:12:25.763Z,3.80
2024-02-16T11:14:53.506Z,4.20
2024-02-16T11:17:21.051Z,3.90
2024-02-16T11:19:48.911Z,3.90
2024-02-16T11:22:16.658Z,3.20
2024-02-16T11:24:44.536Z,2.90
2024-02-16T11:27:12.110Z,2.90
2024-02-16T11:29:39.883Z,3.20
2024-02-16T11:32:07.497Z,2.90
2024-02-16T11:34:35.178Z,2.70
2024-02-16T11:37:02.823Z,2.40
2024-02-16T11:39:30.579Z,3.00
2024-02-16T11:41:58.269Z,3.10
2024-02-16T11:44:26.239Z,3.00
2024-02-16T11:46:53.882Z,3.20
2024-02-16T11:49:21.552Z,3.20
2024-02-16T11:51:49.519Z,2.60
2024-02-16T11:54:16.982Z,3.00
2024-02-16T11:56:44.643Z,2.50
2024-02-16T11:59:12.299Z,3.20
2024-02-16T12:01:39.974Z,3.20
2024-02-16T12:04:07.514Z,3.30
2024-02-16T12:06:35.332Z,3.20
2024-02-16T12:09:03.368Z,3.00
2024-02-16T12:11:31.115Z,3.70
2024-02-16T12:13:58.780Z,3.30
2024-02-16T12:16:26.441Z,3.20
2024-02-16T12:18:54.065Z,3.30
2024-02-16T12:21:21.997Z,3.50
2024-02-16T12:23:49.830Z,6.60
2024-02-16T12:26:17.493Z,4.10
2024-02-16T12:28:45.052Z,3.40
2024-02-16T12:31:13.041Z,4.10
2024-02-16T12:33:40.790Z,3.30
2024-02-16T12:36:08.703Z,4.40
2024-02-16T12:38:36.228Z,4.40
2024-02-16T12:41:03.906Z,3.80
2024-02-16T12:43:31.458Z,3.90
2024-02-16T12:45:59.053Z,3.90
2024-02-16T12:48:26.887Z,6.70
2024-02-16T12:50:55.158Z,4.20
2024-02-16T12:53:22.828Z,3.90
2024-02-16T12:55:50.500Z,3.60
2024-02-16T12:58:17.966Z,4.40
2024-02-16T13:00:45.697Z,4.20
2024-02-16T13:03:13.572Z,4.50
2024-02-16T13:05:41.422Z,6.30
2024-02-16T13:08:09.122Z,8.20
2024-02-16T13:10:36.758Z,24.30
2024-02-16T13:13:04.730Z,11.70
2024-02-16T13:15:32.374Z,8.10
2024-02-16T13:18:00.486Z,5.00
2024-02-16T13:20:28.353Z,4.60
2024-02-16T13:22:55.916Z,5.80
2024-02-16T13:25:23.641Z,4.50
2024-02-16T13:27:51.216Z,6.90
2024-02-16T13:30:18.837Z,4.00
2024-02-16T13:32:46.567Z,4.40
2024-02-16T13:35:15.776Z,12.90
2024-02-16T13:37:44.397Z,12.60
2024-02-16T13:40:12.167Z,11.40
2024-02-16T13:42:39.751Z,10.50
2024-02-16T13:45:07.501Z,5.20
2024-02-16T13:47:35.265Z,3.70
2024-02-16T13:50:02.853Z,3.70
2024-02-16T13:52:30.545Z,4.60
2024-02-16T13:54:58.234Z,4.20
2024-02-16T13:57:25.795Z,4.70
2024-02-16T13:59:53.439Z,4.10
2024-02-16T14:02:21.078Z,5.10
2024-02-16T14:04:48.679Z,4.30
2024-02-16T14:07:16.440Z,4.30
2024-02-16T14:09:44.434Z,3.90
2024-02-16T14:12:12.278Z,4.20
2024-02-16T14:14:39.895Z,3.20
2024-02-16T14:17:07.555Z,3.30
2024-02-16T14:19:35.842Z,3.30
2024-02-16T14:22:03.736Z,3.20
2024-02-16T14:24:31.687Z,3.30
2024-02-16T14:26:59.260Z,3.80
2024-02-16T14:29:26.878Z,3.40
2024-02-16T14:31:54.544Z,3.50
2024-02-16T14:34:22.112Z,3.00
2024-02-16T14:36:50.115Z,2.60
2024-02-16T14:39:17.648Z,2.60
2024-02-16T14:41:45.500Z,3.50
2024-02-16T14:44:13.151Z,2.80
2024-02-16T14:46:40.805Z,3.20
2024-02-16T14:49:08.569Z,3.50
2024-02-16T14:51:36.563Z,2.90
2024-02-16T14:54:04.349Z,3.20
2024-02-16T14:56:31.985Z,4.20
2024-02-16T14:58:59.640Z,3.30
2024-02-16T15:01:27.621Z,3.60
2024-02-16T15:03:55.324Z,3.10
2024-02-16T15:06:23.108Z,3.50
2024-02-16T15:08:50.930Z,3.00
2024-02-16T15:11:18.699Z,3.80
2024-02-16T15:13:52.170Z,3.80
2024-02-16T15:16:19.827Z,4.20
2024-02-16T15:18:47.608Z,3.20
2024-02-16T15:21:15.325Z,3.50
2024-02-16T15:23:43.427Z,3.00
2024-02-16T15:26:11.090Z,4.20
2024-02-16T15:28:39.060Z,3.70
2024-02-16T15:31:06.635Z,4.10
2024-02-16T15:33:34.370Z,2.80
2024-02-16T15:36:02.101Z,3.20
2024-02-16T15:38:29.699Z,3.90
2024-02-16T15:40:57.266Z,3.30
2024-02-16T15:43:25.127Z,3.70
2024-02-16T15:45:52.757Z,3.60
2024-02-16T15:48:23.553Z,4.00
2024-02-16T15:50:54.999Z,3.70
2024-02-16T15:53:23.659Z,4.60
2024-02-16T15:55:51.211Z,4.70
2024-02-16T15:58:18.562Z,4.20
2024-02-16T16:00:46.193Z,3.90
2024-02-16T16:03:13.994Z,3.60
2024-02-16T16:05:41.785Z,3.60
2024-02-16T16:08:09.459Z,4.20
2024-02-16T16:10:37.085Z,4.30
2024-02-16T16:13:04.653Z,3.50
2024-02-16T16:15:32.232Z,3.60
2024-02-16T16:17:59.945Z,3.70
2024-02-16T16:20:27.917Z,3.80
2024-02-16T16:22:55.595Z,4.70
2024-02-16T16:25:23.571Z,4.10
2024-02-16T16:27:51.195Z,3.90
2024-02-16T16:30:19.044Z,3.40
2024-02-16T16:32:46.694Z,3.90
2024-02-16T16:35:14.476Z,4.30
2024-02-16T16:37:42.281Z,6.00
2024-02-16T16:40:09.937Z,6.20
2024-02-16T16:42:37.610Z,8.60
2024-02-16T16:45:05.735Z,9.30
2024-02-16T16:47:33.360Z,14.00
2024-02-16T16:50:01.114Z,19.80
2024-02-16T16:52:28.866Z,25.70
2024-02-16T16:54:56.434Z,22.50
2024-02-16T16:57:24.138Z,47.70
2024-02-16T16:59:51.854Z,37.10
2024-02-16T17:02:19.609Z,36.40
2024-02-16T17:04:47.592Z,40.50
2024-02-16T17:07:15.354Z,16.80
2024-02-16T17:09:43.088Z,11.60
2024-02-16T17:12:10.909Z,9.70
2024-02-16T17:14:38.632Z,9.10
2024-02-16T17:17:06.300Z,14.10
2024-02-16T17:19:34.365Z,21.40
2024-02-16T17:22:02.229Z,23.20
2024-02-16T17:24:29.905Z,33.30
2024-02-16T17:26:57.922Z,45.00
2024-02-16T17:29:25.633Z,20.40
2024-02-16T17:31:53.300Z,23.20
2024-02-16T17:34:20.815Z,13.60
2024-02-16T17:36:48.692Z,9.40
2024-02-16T17:39:16.282Z,8.50
2024-02-16T17:41:43.828Z,7.80
2024-02-16T17:44:11.401Z,9.60
2024-02-16T17:46:41.401Z,10.10
2024-02-16T17:49:09.398Z,9.90
2024-02-16T17:51:37.164Z,13.40
2024-02-16T17:54:05.087Z,8.90
2024-02-16T17:56:32.873Z,8.50
2024-02-16T17:59:00.438Z,8.50
2024-02-16T18:01:28.113Z,8.60
2024-02-16T18:03:55.779Z,14.20
2024-02-16T18:06:23.665Z,10.20
2024-02-16T18:08:51.398Z,9.20
2024-02-16T18:11:18.939Z,21.10
2024-02-16T18:13:46.496Z,32.90
2024-02-16T18:16:14.159Z,24.00
2024-02-16T18:18:41.984Z,24.90
2024-02-16T18:21:09.723Z,34.60
2024-02-16T18:23:37.552Z,24.90
2024-02-16T18:26:05.117Z,14.50
2024-02-16T18:28:42.011Z,15.00
2024-02-16T18:31:14.360Z,12.60
2024-02-16T18:33:42.182Z,8.90
2024-02-16T18:36:09.925Z,10.10
2024-02-16T18:38:37.547Z,9.20
2024-02-16T18:41:05.122Z,15.00
2024-02-16T18:43:32.683Z,13.60
2024-02-16T18:46:00.334Z,14.30
2024-02-16T18:48:28.097Z,18.40
2024-02-16T18:50:55.958Z,13.00
2024-02-16T18:53:23.614Z,10.70
2024-02-16T18:55:51.287Z,11.50
2024-02-16T18:58:18.743Z,8.70
2024-02-16T19:00:46.358Z,9.10
2024-02-16T19:03:14.243Z,10.80
2024-02-16T19:05:41.938Z,9.20
2024-02-16T19:08:11.642Z,9.50
2024-02-16T19:10:39.647Z,10.70
2024-02-16T19:13:07.277Z,12.20
2024-02-16T19:15:35.462Z,10.60
2024-02-16T19:18:03.190Z,13.50
2024-02-16T19:20:31.069Z,10.20
2024-02-16T19:22:58.622Z,9.20
2024-02-16T19:25:26.313Z,9.30
2024-02-16T19:27:54.044Z,9.00
2024-02-16T19:30:25.049Z,9.70
2024-02-16T19:32:53.393Z,7.00
2024-02-16T19:35:21.079Z,8.70
2024-02-16T19:37:49.101Z,7.10
2024-02-16T19:40:16.671Z,8.20
2024-02-16T19:42:44.634Z,10.60
2024-02-16T19:45:12.362Z,10.20
2024-02-16T19:47:40.268Z,11.30
2024-02-16T19:50:09.835Z,8.90
2024-02-16T19:52:38.034Z,9.00
2024-02-16T19:55:05.635Z,11.10
2024-02-16T19:57:33.803Z,12.10
2024-02-16T20:00:01.431Z,8.00
2024-02-16T20:02:29.105Z,7.40
2024-02-16T20:04:56.708Z,8.00
2024-02-16T20:07:24.594Z,7.40
2024-02-16T20:09:52.389Z,8.30
2024-02-16T20:12:20.072Z,8.90
2024-02-16T20:14:47.915Z,10.20
2024-02-16T20:17:15.880Z,8.80
2024-02-16T20:19:43.691Z,9.80
2024-02-16T20:22:11.508Z,10.40
2024-02-16T20:24:48.020Z,10.80
2024-02-16T20:27:15.877Z,12.60
2024-02-16T20:29:43.511Z,9.70
2024-02-16T20:32:11.159Z,9.90
2024-02-16T20:34:38.817Z,9.90
2024-02-16T20:37:06.483Z,8.40
2024-02-16T20:39:35.910Z,9.20
2024-02-16T20:42:04.887Z,9.40
2024-02-16T20:44:32.542Z,8.80
2024-02-16T20:47:00.203Z,10.30
2024-02-16T20:49:27.790Z,8.90
2024-02-16T20:51:55.323Z,8.70
2024-02-16T20:54:22.697Z,11.00
2024-02-16T20:56:50.350Z,11.30
2024-02-16T20:59:18.407Z,13.40
2024-02-16T21:01:45.990Z,10.70
2024-02-16T21:04:13.939Z,8.60
2024-02-16T21:06:41.821Z,9.20
2024-02-16T21:09:09.691Z,10.10
2024-02-16T21:11:37.428Z,9.20
2024-02-16T21:14:05.198Z,9.00
2024-02-16T21:16:32.750Z,9.50
2024-02-16T21:19:00.533Z,8.70
2024-02-16T21:21:28.246Z,8.50
2024-02-16T21:23:56.377Z,10.20
2024-02-16T21:26:24.023Z,10.30
2024-02-16T21:28:51.576Z,9.30
2024-02-16T21:31:19.237Z,11.30
2024-02-16T21:33:46.976Z,9.70
2024-02-16T21:36:14.695Z,9.50
2024-02-16T21:38:42.526Z,9.20
2024-02-16T21:41:10.100Z,10.30
2024-02-16T21:43:37.959Z,11.50
2024-02-16T21:46:05.661Z,10.30
2024-02-16T21:48:39.593Z,10.10
2024-02-16T21:51:11.918Z,9.60
2024-02-16T21:53:39.555Z,11.30
2024-02-16T21:56:07.122Z,10.40
2024-02-16T21:58:34.776Z,12.40
2024-02-16T22:01:02.805Z,10.50
2024-02-16T22:03:30.594Z,9.30
2024-02-16T22:05:58.413Z,10.10
2024-02-16T22:08:26.039Z,9.20
2024-02-16T22:10:53.908Z,8.60
2024-02-16T22:13:21.570Z,9.80
2024-02-16T22:15:49.147Z,8.70
2024-02-16T22:18:16.771Z,8.90
2024-02-16T22:20:44.563Z,10.30
2024-02-16T22:23:12.420Z,11.50
2024-02-16T22:25:40.074Z,10.20
2024-02-16T22:28:07.641Z,8.80
2024-02-16T22:30:35.238Z,9.90
2024-02-16T22:33:02.890Z,10.90
2024-02-16T22:35:30.719Z,9.50
2024-02-16T22:37:58.280Z,9.90
2024-02-16T22:40:25.947Z,10.00
2024-02-16T22:42:53.869Z,10.30
2024-02-16T22:45:21.622Z,10.10
2024-02-16T22:47:49.296Z,10.00
2024-02-16T22:50:17.086Z,9.60
2024-02-16T22:52:44.761Z,8.40
2024-02-16T22:55:12.461Z,8.70
2024-02-16T22:57:40.211Z,8.50
2024-02-16T23:00:07.927Z,8.80
2024-02-16T23:02:35.916Z,9.20
2024-02-16T23:05:03.586Z,9.10
2024-02-16T23:07:31.187Z,10.40
2024-02-16T23:09:58.998Z,8.40
2024-02-16T23:12:26.596Z,9.20
2024-02-16T23:14:54.226Z,9.90
2024-02-16T23:17:21.883Z,10.90
2024-02-16T23:19:49.475Z,8.70
2024-02-16T23:22:17.104Z,9.20
2024-02-16T23:24:44.821Z,9.40
2024-02-16T23:27:12.671Z,9.90
2024-02-16T23:29:40.388Z,9.40
2024-02-16T23:32:07.954Z,9.30
2024-02-16T23:34:35.755Z,9.30
2024-02-16T23:37:03.590Z,8.90
2024-02-16T23:39:31.187Z,10.30
2024-02-16T23:41:58.920Z,8.40
2024-02-16T23:44:26.252Z,9.20
2024-02-16T23:46:54.220Z,8.60
2024-02-16T23:49:21.921Z,7.90
2024-02-16T23:51:49.656Z,8.80
2024-02-16T23:54:17.408Z,8.50
2024-02-16T23:56:45.199Z,8.60
2024-02-16T23:59:12.945Z,9.80
